Time;durP1;ratioP1;P1;durP2;ratioP2;P2;SDS_P1;SDS_P2;PMS_P1;PMS_P2;Temp;Humidity;BMP_temperature;BMP_pressure;BME280_temperature;BME280_humidity;BME280_pressure;Samples;Min_cycle;Max_cycle;Signal;HPM_P1;HPM_P2
2023/08/19 00:00:58;;;;;;;13.15;11.75;;;;;;;;;;5036042;28;20092;-80
2023/08/19 00:03:23;;;;;;;13.23;11.73;;;;;;;;;;5026684;28;20037;-80
2023/08/19 00:05:49;;;;;;;13.55;12.15;;;;;;;;;;5019224;28;20040;-81
2023/08/19 00:08:14;;;;;;;14.63;12.98;;;;;;;;;;5034316;28;20036;-79
2023/08/19 00:10:40;;;;;;;13.32;11.93;;;;;;;;;;5035253;28;20040;-80
2023/08/19 00:13:05;;;;;;;13.93;12.52;;;;;;;;;;5036392;28;20033;-81
2023/08/19 00:15:30;;;;;;;12.95;11.65;;;;;;;;;;5036434;28;20065;-80
2023/08/19 00:17:55;;;;;;;15.60;12.48;;;;;;;;;;5036911;28;20487;-80
2023/08/19 00:20:21;;;;;;;11.40;10.27;;;;;;;;;;5017681;28;20029;-81
2023/08/19 00:22:46;;;;;;;13.93;11.25;;;;;;;;;;5018730;28;20026;-80
2023/08/19 00:25:11;;;;;;;13.88;12.48;;;;;;;;;;5036622;28;20516;-80
2023/08/19 00:27:37;;;;;;;16.60;13.00;;;;;;;;;;5018316;28;20542;-80
2023/08/19 00:30:03;;;;;;;15.15;13.70;;;;;;;;;;5035610;28;20107;-80
2023/08/19 00:32:28;;;;;;;13.98;12.57;;;;;;;;;;5018317;28;20104;-80
2023/08/19 00:34:53;;;;;;;14.07;11.15;;;;;;;;;;5018773;28;20130;-81
2023/08/19 00:37:19;;;;;;;12.52;11.23;;;;;;;;;;5018682;28;20436;-80
2023/08/19 00:39:44;;;;;;;15.70;12.02;;;;;;;;;;5034305;28;20025;-80
2023/08/19 00:42:09;;;;;;;14.50;13.00;;;;;;;;;;5036090;28;20048;-80
2023/08/19 00:44:34;;;;;;;13.15;11.68;;;;;;;;;;5035899;28;20388;-79
2023/08/19 00:47:03;;;;;;;12.40;11.15;;;;;;;;;;5018255;28;20040;-80
2023/08/19 00:49:32;;;;;;;12.35;11.15;;;;;;;;;;5026409;28;20037;-80
2023/08/19 00:51:58;;;;;;;13.50;12.10;;;;;;;;;;5035914;28;20067;-80
2023/08/19 00:54:23;;;;;;;13.77;12.40;;;;;;;;;;5013951;28;20132;-80
2023/08/19 00:56:49;;;;;;;13.77;12.40;;;;;;;;;;5018073;28;20033;-80
2023/08/19 00:59:14;;;;;;;14.82;13.43;;;;;;;;;;5017654;28;20056;-81
2023/08/19 01:01:39;;;;;;;13.60;12.20;;;;;;;;;;5026606;28;20033;-80
2023/08/19 01:04:05;;;;;;;13.30;11.93;;;;;;;;;;5035382;28;20044;-79
2023/08/19 01:06:41;;;;;;;13.20;11.90;;;;;;;;;;5027112;28;20045;-80
2023/08/19 01:09:25;;;;;;;13.25;11.75;;;;;;;;;;5033609;28;20056;-80
2023/08/19 01:12:12;;;;;;;14.85;12.65;;;;;;;;;;5032280;28;20034;-80
2023/08/19 01:14:49;;;;;;;13.75;12.38;;;;;;;;;;5017698;28;20377;-80
2023/08/19 01:17:17;;;;;;;14.57;13.18;;;;;;;;;;5031793;28;20464;-79
2023/08/19 01:19:44;;;;;;;15.48;12.43;;;;;;;;;;5014371;28;20029;-80
2023/08/19 01:22:11;;;;;;;12.70;10.68;;;;;;;;;;5016954;28;20041;-80
2023/08/19 01:24:40;;;;;;;13.70;12.25;;;;;;;;;;5034661;28;20456;-81
2023/08/19 01:27:06;;;;;;;14.38;11.38;;;;;;;;;;5034324;28;20037;-79
2023/08/19 01:29:31;;;;;;;12.57;11.32;;;;;;;;;;5015863;28;20033;-81
2023/08/19 01:31:57;;;;;;;11.35;10.18;;;;;;;;;;5029001;28;20029;-81
2023/08/19 01:34:24;;;;;;;12.70;11.15;;;;;;;;;;5016690;28;20036;-81
2023/08/19 01:36:50;;;;;;;10.93;9.82;;;;;;;;;;5035055;28;20663;-81
2023/08/19 01:39:16;;;;;;;14.02;12.05;;;;;;;;;;5024433;28;20040;-81
2023/08/19 01:41:41;;;;;;;13.00;11.57;;;;;;;;;;5035538;28;20029;-80
2023/08/19 01:44:07;;;;;;;14.55;12.85;;;;;;;;;;5030217;28;20034;-81
2023/08/19 01:46:32;;;;;;;15.05;13.55;;;;;;;;;;5018420;28;20124;-81
2023/08/19 01:48:58;;;;;;;14.93;13.43;;;;;;;;;;5034850;28;20447;-80
2023/08/19 01:51:24;;;;;;;11.77;10.68;;;;;;;;;;5025542;28;20041;-80
2023/08/19 01:53:49;;;;;;;11.48;10.35;;;;;;;;;;5017942;28;20029;-81
2023/08/19 01:56:14;;;;;;;13.02;11.75;;;;;;;;;;5034042;28;20075;-80
2023/08/19 01:58:40;;;;;;;12.73;11.52;;;;;;;;;;5026088;28;20083;-79
2023/08/19 02:01:09;;;;;;;12.60;11.32;;;;;;;;;;5017383;28;20033;-81
2023/08/19 02:03:34;;;;;;;14.30;12.82;;;;;;;;;;5034944;28;20030;-81
2023/08/19 02:05:59;;;;;;;13.65;12.25;;;;;;;;;;5025298;28;20622;-81
2023/08/19 02:08:25;;;;;;;15.30;13.70;;;;;;;;;;5024207;28;20532;-80
2023/08/19 02:10:50;;;;;;;15.63;13.98;;;;;;;;;;5025252;28;20388;-80
2023/08/19 02:13:15;;;;;;;16.45;14.55;;;;;;;;;;5024805;28;20036;-81
2023/08/19 02:15:41;;;;;;;15.40;13.32;;;;;;;;;;5033786;28;20492;-81
2023/08/19 02:18:07;;;;;;;16.27;14.68;;;;;;;;;;5017286;28;20083;-81
2023/08/19 02:20:32;;;;;;;16.02;14.32;;;;;;;;;;5022753;28;20029;-80
2023/08/19 02:22:59;;;;;;;16.63;15.00;;;;;;;;;;5016901;28;20030;-80
2023/08/19 02:25:24;;;;;;;15.95;14.38;;;;;;;;;;5017993;28;20088;-80
2023/08/19 02:27:50;;;;;;;19.95;17.45;;;;;;;;;;5025453;28;20037;-81
2023/08/19 02:30:15;;;;;;;16.40;14.20;;;;;;;;;;5016392;28;20029;-80
2023/08/19 02:32:41;;;;;;;14.23;12.82;;;;;;;;;;5016905;28;20550;-80
2023/08/19 02:35:07;;;;;;;19.42;15.85;;;;;;;;;;5016775;28;20033;-79
2023/08/19 02:37:32;;;;;;;18.67;16.77;;;;;;;;;;5030357;28;20021;-80
2023/08/19 02:39:57;;;;;;;17.42;15.57;;;;;;;;;;5016408;28;20079;-80
2023/08/19 02:42:23;;;;;;;17.30;15.50;;;;;;;;;;5034447;28;20518;-80
2023/08/19 02:44:48;;;;;;;15.35;13.85;;;;;;;;;;5017333;28;20670;-81
2023/08/19 02:47:13;;;;;;;16.27;14.65;;;;;;;;;;5016955;28;20033;-80
2023/08/19 02:49:39;;;;;;;15.90;14.30;;;;;;;;;;5032432;28;20120;-80
2023/08/19 02:52:05;;;;;;;18.17;16.30;;;;;;;;;;5028969;28;20029;-81
2023/08/19 02:54:30;;;;;;;16.60;15.05;;;;;;;;;;5020413;28;20052;-81
2023/08/19 02:56:55;;;;;;;17.63;15.30;;;;;;;;;;5038564;28;20025;-80
2023/08/19 02:59:20;;;;;;;19.02;17.13;;;;;;;;;;5037972;28;20492;-81
2023/08/19 03:01:46;;;;;;;18.75;16.85;;;;;;;;;;5030676;28;20503;-81
2023/08/19 03:04:11;;;;;;;16.55;14.95;;;;;;;;;;5020732;28;20115;-79
2023/08/19 03:06:36;;;;;;;18.80;16.88;;;;;;;;;;5028643;28;20033;-81
2023/08/19 03:09:01;;;;;;;17.55;15.57;;;;;;;;;;5037693;28;20088;-80
2023/08/19 03:11:27;;;;;;;17.50;15.80;;;;;;;;;;5020467;28;20079;-81
2023/08/19 03:13:52;;;;;;;16.90;15.30;;;;;;;;;;5028685;28;20038;-80
2023/08/19 03:16:17;;;;;;;17.35;15.52;;;;;;;;;;5028593;28;20021;-80
2023/08/19 03:18:42;;;;;;;16.77;15.00;;;;;;;;;;5020607;28;20508;-81
2023/08/19 03:21:08;;;;;;;16.08;14.45;;;;;;;;;;5019710;28;20088;-80
2023/08/19 03:23:33;;;;;;;16.17;14.52;;;;;;;;;;5021309;28;20056;-80
2023/08/19 03:25:59;;;;;;;17.02;15.23;;;;;;;;;;5015884;28;20018;-81
2023/08/19 03:28:25;;;;;;;18.33;16.52;;;;;;;;;;5020261;28;20025;-81
2023/08/19 03:30:50;;;;;;;16.30;14.65;;;;;;;;;;5036175;28;20128;-80
2023/08/19 03:33:16;;;;;;;17.10;15.40;;;;;;;;;;5038437;28;20392;-79
2023/08/19 03:35:41;;;;;;;20.20;17.88;;;;;;;;;;5028588;28;20053;-80
2023/08/19 03:38:07;;;;;;;17.92;16.02;;;;;;;;;;5028552;28;20037;-81
2023/08/19 03:40:33;;;;;;;17.98;16.00;;;;;;;;;;5019146;28;20025;-80
2023/08/19 03:42:58;;;;;;;18.70;16.90;;;;;;;;;;5037330;28;20027;-79
2023/08/19 03:45:23;;;;;;;20.10;16.90;;;;;;;;;;5019911;28;20404;-80
2023/08/19 03:47:48;;;;;;;20.60;18.63;;;;;;;;;;5037805;28;20025;-80
2023/08/19 03:50:14;;;;;;;18.60;16.65;;;;;;;;;;5027470;28;20033;-81
2023/08/19 03:52:39;;;;;;;19.88;17.63;;;;;;;;;;5037268;28;20048;-81
2023/08/19 03:55:07;;;;;;;15.55;13.98;;;;;;;;;;5006400;28;20053;-80
2023/08/19 03:57:32;;;;;;;11.60;10.40;;;;;;;;;;5037778;28;20048;-80
2023/08/19 03:59:58;;;;;;;12.20;11.00;;;;;;;;;;5036892;28;20057;-81
2023/08/19 04:02:23;;;;;;;10.98;9.85;;;;;;;;;;5036169;28;20511;-80
2023/08/19 04:04:58;;;;;;;15.75;14.13;;;;;;;;;;5035932;28;20031;-79
2023/08/19 04:07:23;;;;;;;14.18;12.77;;;;;;;;;;5034345;28;20037;-80
2023/08/19 04:09:49;;;;;;;18.10;15.05;;;;;;;;;;5027333;28;20044;-80
2023/08/19 04:12:15;;;;;;;18.50;16.30;;;;;;;;;;5027510;28;20483;-81
2023/08/19 04:14:40;;;;;;;16.13;14.43;;;;;;;;;;5019603;28;20037;-79
2023/08/19 04:17:07;;;;;;;16.63;14.93;;;;;;;;;;5036922;28;20484;-80
2023/08/19 04:19:33;;;;;;;17.27;15.48;;;;;;;;;;5018761;28;20101;-79
2023/08/19 04:21:58;;;;;;;15.50;13.90;;;;;;;;;;5035298;28;20056;-80
2023/08/19 04:24:24;;;;;;;15.07;13.57;;;;;;;;;;5037360;28;20036;-80
2023/08/19 04:26:49;;;;;;;17.60;15.80;;;;;;;;;;5013443;28;20037;-80
2023/08/19 04:29:14;;;;;;;25.20;17.38;;;;;;;;;;5018689;28;20025;-81
2023/08/19 04:31:41;;;;;;;18.65;16.75;;;;;;;;;;5027403;28;20029;-79
2023/08/19 04:34:06;;;;;;;16.50;14.90;;;;;;;;;;5036598;28;20109;-81
2023/08/19 04:36:31;;;;;;;17.10;15.32;;;;;;;;;;5018669;28;20175;-81
2023/08/19 04:38:58;;;;;;;16.27;14.73;;;;;;;;;;5026233;28;20453;-81
2023/08/19 04:41:23;;;;;;;16.40;14.77;;;;;;;;;;5015969;28;20046;-79
2023/08/19 04:43:48;;;;;;;16.08;14.23;;;;;;;;;;5018928;28;20025;-80
2023/08/19 04:46:15;;;;;;;16.33;14.73;;;;;;;;;;5018500;28;20488;-80
2023/08/19 04:48:41;;;;;;;18.17;16.30;;;;;;;;;;5018884;28;20039;-81
2023/08/19 04:51:07;;;;;;;17.52;15.82;;;;;;;;;;5025566;28;20029;-81
2023/08/19 04:53:33;;;;;;;17.08;15.48;;;;;;;;;;5020641;28;20106;-81
2023/08/19 04:55:59;;;;;;;17.38;15.68;;;;;;;;;;5018692;28;20721;-81
2023/08/19 04:58:25;;;;;;;16.73;15.23;;;;;;;;;;5027342;28;20057;-80
2023/08/19 05:00:50;;;;;;;17.08;15.38;;;;;;;;;;5017460;28;20033;-80
2023/08/19 05:03:15;;;;;;;17.85;16.15;;;;;;;;;;5034161;28;20176;-79
2023/08/19 05:05:42;;;;;;;18.02;16.23;;;;;;;;;;5017830;28;20021;-80
2023/08/19 05:08:07;;;;;;;18.00;16.20;;;;;;;;;;5026788;28;20044;-80
2023/08/19 05:10:32;;;;;;;18.35;16.58;;;;;;;;;;5035725;28;20035;-81
2023/08/19 05:12:58;;;;;;;18.42;16.65;;;;;;;;;;5035154;28;20031;-79
2023/08/19 05:15:24;;;;;;;16.55;14.85;;;;;;;;;;5026641;28;20026;-80
2023/08/19 05:17:49;;;;;;;16.40;14.70;;;;;;;;;;5026406;28;20087;-81
2023/08/19 05:20:14;;;;;;;16.60;14.93;;;;;;;;;;5025556;28;20120;-80
2023/08/19 05:22:39;;;;;;;18.40;16.63;;;;;;;;;;5035535;28;20061;-81
2023/08/19 05:25:05;;;;;;;16.55;14.85;;;;;;;;;;5032055;28;20065;-81
2023/08/19 05:27:30;;;;;;;19.38;17.48;;;;;;;;;;5034312;28;20033;-79
2023/08/19 05:29:56;;;;;;;18.58;16.60;;;;;;;;;;5035183;28;20389;-80
2023/08/19 05:32:21;;;;;;;17.07;15.40;;;;;;;;;;5035279;28;20678;-81
2023/08/19 05:34:46;;;;;;;17.83;16.13;;;;;;;;;;5035413;28;20371;-79
2023/08/19 05:37:11;;;;;;;18.20;16.38;;;;;;;;;;5035198;28;20052;-80
2023/08/19 05:39:36;;;;;;;17.07;15.27;;;;;;;;;;5034957;28;20060;-80
2023/08/19 05:42:02;;;;;;;17.92;16.27;;;;;;;;;;5017908;28;20355;-80
2023/08/19 05:44:27;;;;;;;19.55;16.75;;;;;;;;;;5035707;28;20033;-80
2023/08/19 05:46:52;;;;;;;17.35;15.65;;;;;;;;;;5025736;28;20033;-80
2023/08/19 05:49:17;;;;;;;17.27;15.50;;;;;;;;;;5025307;28;20037;-80
2023/08/19 05:51:42;;;;;;;16.30;14.70;;;;;;;;;;5035039;28;20029;-80
2023/08/19 05:54:08;;;;;;;16.90;15.40;;;;;;;;;;5035052;28;20778;-81
2023/08/19 05:56:34;;;;;;;15.98;14.55;;;;;;;;;;5035057;28;20276;-80
2023/08/19 05:58:59;;;;;;;16.40;14.80;;;;;;;;;;5034952;28;20037;-81
2023/08/19 06:01:24;;;;;;;15.20;13.70;;;;;;;;;;5034539;28;20041;-81
2023/08/19 06:03:50;;;;;;;14.73;13.32;;;;;;;;;;5034621;28;20048;-81
2023/08/19 06:06:16;;;;;;;15.60;14.10;;;;;;;;;;5034954;28;20089;-80
2023/08/19 06:08:41;;;;;;;14.27;12.98;;;;;;;;;;5031022;28;20484;-81
2023/08/19 06:11:06;;;;;;;15.40;13.90;;;;;;;;;;5034355;28;20036;-80
2023/08/19 06:13:35;;;;;;;15.25;13.75;;;;;;;;;;5011000;28;20279;-81
2023/08/19 06:16:03;;;;;;;16.60;13.57;;;;;;;;;;5024897;28;20064;-80
2023/08/19 06:18:28;;;;;;;13.68;12.38;;;;;;;;;;5034706;28;20391;-80
2023/08/19 06:20:54;;;;;;;13.70;12.40;;;;;;;;;;5034006;28;20036;-81
2023/08/19 06:23:20;;;;;;;14.07;12.63;;;;;;;;;;5034723;28;20033;-80
2023/08/19 06:25:49;;;;;;;12.82;11.63;;;;;;;;;;5016651;28;20132;-79
2023/08/19 06:28:15;;;;;;;14.30;12.65;;;;;;;;;;5023749;28;20033;-81
2023/08/19 06:30:40;;;;;;;13.05;11.85;;;;;;;;;;5033873;28;20400;-80
2023/08/19 06:33:06;;;;;;;13.50;12.30;;;;;;;;;;5019085;28;20022;-81
2023/08/19 06:35:31;;;;;;;12.30;11.13;;;;;;;;;;5034395;28;20492;-79
2023/08/19 06:37:59;;;;;;;12.07;10.88;;;;;;;;;;5024949;28;20030;-80
2023/08/19 06:40:26;;;;;;;12.55;11.35;;;;;;;;;;5022867;28;20025;-80
2023/08/19 06:42:52;;;;;;;13.88;12.57;;;;;;;;;;5034085;28;20055;-80
2023/08/19 06:45:17;;;;;;;12.02;10.93;;;;;;;;;;5025569;28;20124;-80
2023/08/19 06:47:45;;;;;;;12.75;11.45;;;;;;;;;;5034191;28;20033;-80
2023/08/19 06:50:11;;;;;;;12.38;11.18;;;;;;;;;;5024829;28;20039;-80
2023/08/19 06:52:36;;;;;;;13.63;12.25;;;;;;;;;;5034442;28;20470;-80
2023/08/19 06:55:02;;;;;;;13.48;12.27;;;;;;;;;;5034469;28;20033;-79
2023/08/19 06:57:29;;;;;;;14.10;12.80;;;;;;;;;;5021336;28;20030;-80
2023/08/19 07:00:05;;;;;;;14.18;12.88;;;;;;;;;;5016122;28;20472;-80
2023/08/19 07:02:33;;;;;;;12.43;11.23;;;;;;;;;;5016517;28;20037;-80
2023/08/19 07:04:59;;;;;;;12.60;11.48;;;;;;;;;;5034232;28;20396;-81
2023/08/19 07:07:25;;;;;;;13.60;12.25;;;;;;;;;;5017252;28;20029;-80
2023/08/19 07:09:52;;;;;;;12.68;11.38;;;;;;;;;;5033456;28;20037;-80
2023/08/19 07:12:17;;;;;;;13.52;11.80;;;;;;;;;;5034157;28;20056;-80
2023/08/19 07:14:42;;;;;;;12.45;11.15;;;;;;;;;;5024799;28;20481;-81
2023/08/19 07:17:08;;;;;;;13.30;12.10;;;;;;;;;;5016496;28;20037;-81
2023/08/19 07:19:35;;;;;;;13.32;12.13;;;;;;;;;;5023953;28;20714;-80
2023/08/19 07:22:01;;;;;;;12.05;10.88;;;;;;;;;;5024523;28;20033;-80
2023/08/19 07:24:27;;;;;;;12.18;10.93;;;;;;;;;;5034948;28;20080;-81
2023/08/19 07:26:53;;;;;;;12.02;10.93;;;;;;;;;;5034752;28;20033;-80
2023/08/19 07:29:18;;;;;;;13.70;11.63;;;;;;;;;;5033567;28;20109;-80
2023/08/19 07:31:44;;;;;;;10.60;9.45;;;;;;;;;;5016914;28;20034;-81
2023/08/19 07:34:09;;;;;;;11.77;10.63;;;;;;;;;;5033743;28;20042;-80
2023/08/19 07:36:35;;;;;;;14.52;10.95;;;;;;;;;;5025053;28;20025;-79
2023/08/19 07:39:00;;;;;;;11.95;10.85;;;;;;;;;;5018673;28;20079;-81
2023/08/19 07:41:25;;;;;;;12.13;11.02;;;;;;;;;;5028365;28;20037;-81
2023/08/19 07:43:50;;;;;;;12.77;10.53;;;;;;;;;;5037754;28;20025;-80
2023/08/19 07:46:17;;;;;;;10.82;9.57;;;;;;;;;;5028326;28;20290;-80
2023/08/19 07:48:42;;;;;;;11.73;10.20;;;;;;;;;;5021863;28;20030;-81
2023/08/19 07:51:08;;;;;;;10.27;9.15;;;;;;;;;;5036866;28;20389;-81
2023/08/19 07:53:33;;;;;;;10.93;9.77;;;;;;;;;;5037447;28;20088;-80
2023/08/19 07:55:58;;;;;;;10.75;9.65;;;;;;;;;;5027565;28;20052;-79
2023/08/19 07:58:24;;;;;;;11.37;10.17;;;;;;;;;;5037616;28;20502;-80
2023/08/19 08:00:49;;;;;;;13.20;9.18;;;;;;;;;;5036679;28;20283;-80
2023/08/19 08:03:14;;;;;;;12.93;9.18;;;;;;;;;;5034294;28;20092;-80
2023/08/19 08:05:40;;;;;;;9.80;8.77;;;;;;;;;;5028062;28;20124;-80
2023/08/19 08:08:05;;;;;;;10.03;9.03;;;;;;;;;;5028336;28;20413;-80
2023/08/19 08:10:30;;;;;;;10.53;9.43;;;;;;;;;;5036532;28;20315;-81
2023/08/19 08:12:55;;;;;;;10.55;9.45;;;;;;;;;;5037060;28;20287;-80
2023/08/19 08:15:20;;;;;;;10.32;9.38;;;;;;;;;;5037593;28;20100;-80
2023/08/19 08:17:46;;;;;;;10.30;8.87;;;;;;;;;;5037097;28;20026;-80
2023/08/19 08:20:11;;;;;;;12.40;9.47;;;;;;;;;;5018398;28;20766;-80
2023/08/19 08:22:36;;;;;;;11.70;8.80;;;;;;;;;;5034478;28;20268;-80
2023/08/19 08:25:02;;;;;;;9.27;8.37;;;;;;;;;;5033511;28;20276;-79
2023/08/19 08:27:27;;;;;;;9.38;8.40;;;;;;;;;;5031980;28;20360;-81
2023/08/19 08:29:52;;;;;;;9.57;7.70;;;;;;;;;;5036636;28;20033;-80
2023/08/19 08:32:18;;;;;;;10.00;8.37;;;;;;;;;;5018886;28;20282;-80
2023/08/19 08:34:43;;;;;;;10.68;8.55;;;;;;;;;;5026843;28;20295;-80
2023/08/19 08:37:08;;;;;;;10.27;8.20;;;;;;;;;;5036730;28;20103;-80
2023/08/19 08:39:33;;;;;;;9.27;8.27;;;;;;;;;;5027066;28;20381;-81
2023/08/19 08:41:59;;;;;;;9.57;8.57;;;;;;;;;;5036107;28;20064;-80
2023/08/19 08:44:25;;;;;;;10.30;9.10;;;;;;;;;;5027344;28;20741;-81
2023/08/19 08:46:51;;;;;;;10.82;8.60;;;;;;;;;;5034839;28;20144;-81
2023/08/19 08:49:17;;;;;;;9.15;8.30;;;;;;;;;;5033862;28;20041;-81
2023/08/19 08:51:42;;;;;;;8.98;8.07;;;;;;;;;;5035730;28;20071;-80
2023/08/19 08:54:08;;;;;;;10.60;8.25;;;;;;;;;;5035828;28;20037;-81
2023/08/19 08:56:33;;;;;;;9.20;8.32;;;;;;;;;;5036686;28;20091;-81
2023/08/19 08:58:58;;;;;;;9.32;8.05;;;;;;;;;;5035008;28;20021;-80
2023/08/19 09:01:24;;;;;;;8.43;7.63;;;;;;;;;;5036432;28;20132;-81
2023/08/19 09:03:50;;;;;;;7.68;6.88;;;;;;;;;;5034665;28;20291;-81
2023/08/19 09:06:16;;;;;;;9.60;7.65;;;;;;;;;;5035588;28;20025;-81
2023/08/19 09:08:46;;;;;;;8.77;7.85;;;;;;;;;;5035679;28;20087;-78
2023/08/19 09:11:16;;;;;;;8.27;7.53;;;;;;;;;;4996801;28;20030;-80
2023/08/19 09:13:42;;;;;;;7.82;7.13;;;;;;;;;;5036245;28;20075;-80
2023/08/19 09:16:11;;;;;;;11.68;7.55;;;;;;;;;;5035955;28;20532;-81
2023/08/19 09:18:36;;;;;;;7.78;7.00;;;;;;;;;;5035474;28;20484;-80
2023/08/19 09:21:02;;;;;;;9.68;7.28;;;;;;;;;;5033936;28;20033;-80
2023/08/19 09:23:28;;;;;;;8.38;7.57;;;;;;;;;;5035379;28;20121;-81
2023/08/19 09:25:54;;;;;;;8.38;7.57;;;;;;;;;;5034592;28;20038;-81
2023/08/19 09:28:19;;;;;;;10.13;7.22;;;;;;;;;;5026070;28;20064;-81
2023/08/19 09:30:44;;;;;;;9.27;7.97;;;;;;;;;;5034680;28;20419;-81
2023/08/19 09:33:16;;;;;;;8.17;7.37;;;;;;;;;;5034985;28;20029;-81
2023/08/19 09:35:41;;;;;;;8.90;7.65;;;;;;;;;;5025624;28;20296;-81
2023/08/19 09:38:18;;;;;;;10.10;7.70;;;;;;;;;;5025278;28;20160;-80
2023/08/19 09:40:43;;;;;;;8.70;7.63;;;;;;;;;;5030063;28;20108;-79
2023/08/19 09:43:08;;;;;;;7.88;7.07;;;;;;;;;;5035190;28;20449;-81
2023/08/19 09:45:35;;;;;;;8.30;7.43;;;;;;;;;;5035563;28;20437;-81
2023/08/19 09:48:00;;;;;;;7.95;7.25;;;;;;;;;;5035395;28;20052;-81
2023/08/19 09:50:27;;;;;;;11.15;7.65;;;;;;;;;;5016574;28;20033;-81
2023/08/19 09:52:54;;;;;;;8.35;7.40;;;;;;;;;;5034994;28;20029;-81
2023/08/19 09:55:26;;;;;;;7.88;7.07;;;;;;;;;;5034923;28;20037;-81
2023/08/19 09:57:51;;;;;;;8.10;7.30;;;;;;;;;;5016245;28;20053;-80
2023/08/19 10:00:16;;;;;;;7.78;7.00;;;;;;;;;;5022234;28;20036;-81
2023/08/19 10:02:42;;;;;;;8.20;7.40;;;;;;;;;;5034791;28;20025;-80
2023/08/19 10:05:07;;;;;;;7.33;6.63;;;;;;;;;;5035309;28;20135;-81
2023/08/19 10:07:32;;;;;;;7.85;6.82;;;;;;;;;;5017218;28;20033;-82
2023/08/19 10:10:01;;;;;;;9.80;6.90;;;;;;;;;;5032635;28;20037;-81
2023/08/19 10:12:26;;;;;;;7.35;6.65;;;;;;;;;;5034876;28;20563;-81
2023/08/19 10:14:52;;;;;;;7.05;6.15;;;;;;;;;;5025051;28;20053;-80
2023/08/19 10:17:18;;;;;;;8.20;6.25;;;;;;;;;;5033693;28;20026;-81
2023/08/19 10:19:46;;;;;;;8.30;6.63;;;;;;;;;;5016735;28;20064;-80
2023/08/19 10:22:12;;;;;;;7.28;6.15;;;;;;;;;;5010028;28;20046;-81
2023/08/19 10:24:37;;;;;;;8.30;7.05;;;;;;;;;;5035047;28;20467;-81
2023/08/19 10:27:03;;;;;;;7.38;6.68;;;;;;;;;;5034840;28;20029;-81
2023/08/19 10:29:28;;;;;;;8.20;7.27;;;;;;;;;;5030796;28;20472;-81
2023/08/19 10:31:53;;;;;;;8.03;7.23;;;;;;;;;;5034615;28;20025;-81
2023/08/19 10:34:18;;;;;;;6.60;6.00;;;;;;;;;;5034151;28;20296;-81
2023/08/19 10:36:43;;;;;;;7.87;6.80;;;;;;;;;;5034105;28;20033;-81
2023/08/19 10:39:15;;;;;;;7.63;6.93;;;;;;;;;;5024791;28;20037;-81
2023/08/19 10:41:41;;;;;;;7.07;6.40;;;;;;;;;;5016921;28;20272;-81
2023/08/19 10:44:12;;;;;;;9.05;6.30;;;;;;;;;;5034746;28;20029;-80
2023/08/19 10:46:38;;;;;;;7.63;6.25;;;;;;;;;;5024779;28;20539;-81
2023/08/19 10:49:04;;;;;;;7.43;6.03;;;;;;;;;;5032391;28;20064;-81
2023/08/19 10:51:44;;;;;;;8.90;5.28;;;;;;;;;;5034362;28;20064;-81
2023/08/19 10:54:10;;;;;;;8.05;5.97;;;;;;;;;;5031558;28;20033;-81
2023/08/19 10:56:35;;;;;;;7.45;5.82;;;;;;;;;;5032145;28;20443;-81
2023/08/19 10:59:02;;;;;;;6.90;6.30;;;;;;;;;;5034008;28;20069;-81
2023/08/19 11:01:31;;;;;;;6.63;5.57;;;;;;;;;;5033327;28;20036;-81
2023/08/19 11:03:58;;;;;;;7.30;5.88;;;;;;;;;;5034437;28;20034;-81
2023/08/19 11:06:27;;;;;;;6.68;5.93;;;;;;;;;;5034203;28;20396;-81
2023/08/19 11:08:52;;;;;;;6.95;5.25;;;;;;;;;;5033875;28;20609;-81
2023/08/19 11:11:17;;;;;;;6.03;5.43;;;;;;;;;;5018023;28;20025;-81
2023/08/19 11:13:43;;;;;;;7.13;5.80;;;;;;;;;;5028377;28;20033;-81
2023/08/19 11:16:08;;;;;;;6.10;4.82;;;;;;;;;;5038185;28;20033;-81
2023/08/19 11:18:38;;;;;;;7.00;6.03;;;;;;;;;;5038544;28;20032;-81
2023/08/19 11:21:03;;;;;;;5.90;5.30;;;;;;;;;;5035521;28;20336;-81
2023/08/19 11:23:29;;;;;;;7.85;5.60;;;;;;;;;;5037558;28;20068;-80
2023/08/19 11:25:54;;;;;;;5.40;4.90;;;;;;;;;;5038221;28;20071;-81
2023/08/19 11:28:20;;;;;;;5.72;4.15;;;;;;;;;;5038137;28;20400;-81
2023/08/19 11:30:46;;;;;;;6.78;4.45;;;;;;;;;;5035738;28;20116;-80
2023/08/19 11:33:16;;;;;;;5.82;5.13;;;;;;;;;;5019688;28;20128;-80
2023/08/19 11:35:42;;;;;;;7.67;5.10;;;;;;;;;;5038205;28;20484;-80
2023/08/19 11:38:14;;;;;;;5.88;4.70;;;;;;;;;;5027754;28;20423;-80
2023/08/19 11:40:39;;;;;;;6.45;4.40;;;;;;;;;;5037072;28;20017;-80
2023/08/19 11:43:06;;;;;;;5.50;3.88;;;;;;;;;;5037388;28;20484;-81
2023/08/19 11:45:36;;;;;;;5.30;4.32;;;;;;;;;;5037268;28;20090;-79
2023/08/19 11:48:01;;;;;;;7.25;4.57;;;;;;;;;;5028401;28;20120;-81
2023/08/19 11:50:29;;;;;;;5.13;4.00;;;;;;;;;;5036660;28;20507;-81
2023/08/19 11:52:55;;;;;;;5.95;4.05;;;;;;;;;;5036626;28;20037;-81
2023/08/19 11:55:25;;;;;;;5.80;3.73;;;;;;;;;;5022093;28;20392;-80
2023/08/19 11:57:52;;;;;;;4.05;3.25;;;;;;;;;;5037721;28;20029;-81
2023/08/19 12:00:17;;;;;;;7.68;3.67;;;;;;;;;;5027297;28;20033;-81
2023/08/19 12:02:44;;;;;;;5.00;3.43;;;;;;;;;;5036977;28;20031;-81
2023/08/19 12:05:09;;;;;;;5.30;3.60;;;;;;;;;;5036867;28;20311;-80
2023/08/19 12:07:35;;;;;;;5.50;3.53;;;;;;;;;;5036961;28;20416;-81
2023/08/19 12:10:00;;;;;;;4.93;3.53;;;;;;;;;;5027658;28;20472;-81
2023/08/19 12:12:25;;;;;;;3.90;3.10;;;;;;;;;;5037162;28;20361;-81
2023/08/19 12:14:51;;;;;;;5.38;3.10;;;;;;;;;;5028142;28;20045;-81
2023/08/19 12:17:17;;;;;;;3.80;3.10;;;;;;;;;;5027708;28;20029;-81
2023/08/19 12:19:43;;;;;;;5.10;3.22;;;;;;;;;;5026455;28;20030;-81
2023/08/19 12:22:09;;;;;;;4.78;3.75;;;;;;;;;;5035389;28;20124;-81
2023/08/19 12:24:34;;;;;;;5.45;3.60;;;;;;;;;;5026024;28;20427;-82
2023/08/19 12:27:00;;;;;;;4.78;3.10;;;;;;;;;;5036660;28;20132;-81
2023/08/19 12:29:25;;;;;;;4.40;3.30;;;;;;;;;;5035954;28;20037;-81
2023/08/19 12:31:50;;;;;;;4.73;3.37;;;;;;;;;;5036640;28;20367;-81
2023/08/19 12:34:16;;;;;;;5.50;3.20;;;;;;;;;;5036303;28;20291;-81
2023/08/19 12:36:41;;;;;;;4.65;3.90;;;;;;;;;;5018667;28;20783;-81
2023/08/19 12:39:06;;;;;;;4.13;3.30;;;;;;;;;;5035307;28;20571;-80
2023/08/19 12:41:32;;;;;;;5.15;3.78;;;;;;;;;;5036719;28;20284;-81
2023/08/19 12:43:57;;;;;;;4.17;3.07;;;;;;;;;;5036483;28;20104;-81
2023/08/19 12:46:22;;;;;;;4.47;3.47;;;;;;;;;;5034977;28;20022;-80
2023/08/19 12:48:47;;;;;;;4.60;3.43;;;;;;;;;;5035459;28;20021;-78
2023/08/19 12:51:13;;;;;;;5.63;3.30;;;;;;;;;;5036076;28;20029;-81
2023/08/19 12:53:38;;;;;;;4.23;3.00;;;;;;;;;;5035758;28;20508;-81
2023/08/19 12:56:03;;;;;;;3.97;2.90;;;;;;;;;;5036320;28;20288;-81
2023/08/19 12:58:28;;;;;;;4.20;3.23;;;;;;;;;;5035941;28;20813;-80
2023/08/19 13:00:54;;;;;;;4.10;3.30;;;;;;;;;;5035583;28;20264;-81
2023/08/19 13:03:20;;;;;;;4.80;3.35;;;;;;;;;;5036254;28;20095;-81
2023/08/19 13:05:45;;;;;;;5.60;3.38;;;;;;;;;;5036168;28;20039;-81
2023/08/19 13:08:11;;;;;;;4.45;3.35;;;;;;;;;;5035891;28;20029;-81
2023/08/19 13:10:36;;;;;;;5.05;3.20;;;;;;;;;;5035192;28;20691;-81
2023/08/19 13:13:02;;;;;;;4.47;3.53;;;;;;;;;;5035421;28;20076;-82
2023/08/19 13:15:27;;;;;;;4.32;3.20;;;;;;;;;;5018326;28;20029;-81
2023/08/19 13:17:52;;;;;;;4.50;3.73;;;;;;;;;;5035405;28;20057;-81
2023/08/19 13:20:20;;;;;;;5.00;3.43;;;;;;;;;;5035024;28;20029;-81
2023/08/19 13:22:47;;;;;;;6.38;3.58;;;;;;;;;;5030534;28;20030;-81
2023/08/19 13:25:12;;;;;;;4.78;3.30;;;;;;;;;;5035741;28;20080;-82
2023/08/19 13:27:37;;;;;;;4.47;3.25;;;;;;;;;;5032864;28;20026;-81
2023/08/19 13:30:03;;;;;;;5.20;3.27;;;;;;;;;;5035051;28;20033;-81
2023/08/19 13:32:28;;;;;;;3.67;3.20;;;;;;;;;;5035183;28;20303;-82
2023/08/19 13:34:54;;;;;;;4.50;2.90;;;;;;;;;;5034729;28;20060;-82
2023/08/19 13:37:19;;;;;;;3.70;3.00;;;;;;;;;;5034262;28;20443;-82
2023/08/19 13:39:44;;;;;;;7.50;3.43;;;;;;;;;;5034585;28;20029;-81
2023/08/19 13:42:09;;;;;;;3.90;2.87;;;;;;;;;;5035061;28;20044;-81
2023/08/19 13:44:34;;;;;;;3.33;2.60;;;;;;;;;;5034919;28;20283;-82
2023/08/19 13:47:00;;;;;;;3.80;3.10;;;;;;;;;;5026358;28;20043;-81
2023/08/19 13:49:25;;;;;;;3.40;2.80;;;;;;;;;;5034259;28;20400;-82
2023/08/19 13:51:51;;;;;;;4.13;2.95;;;;;;;;;;5034719;28;20029;-81
2023/08/19 13:54:18;;;;;;;4.75;3.00;;;;;;;;;;5025129;28;20097;-81
2023/08/19 13:56:44;;;;;;;3.90;2.75;;;;;;;;;;5035153;28;20464;-81
2023/08/19 13:59:09;;;;;;;5.03;3.25;;;;;;;;;;5033417;28;20029;-82
2023/08/19 14:01:34;;;;;;;5.43;2.97;;;;;;;;;;5034900;28;20029;-82
2023/08/19 14:04:00;;;;;;;3.17;2.77;;;;;;;;;;5034545;28;20272;-81
2023/08/19 14:06:25;;;;;;;5.43;3.17;;;;;;;;;;5025344;28;20327;-82
2023/08/19 14:08:50;;;;;;;4.63;2.83;;;;;;;;;;5034022;28;20503;-81
2023/08/19 14:11:15;;;;;;;4.47;2.87;;;;;;;;;;5033402;28;20032;-82
2023/08/19 14:13:41;;;;;;;3.93;2.87;;;;;;;;;;5025023;28;20040;-82
2023/08/19 14:16:06;;;;;;;6.38;3.05;;;;;;;;;;5033313;28;20389;-81
2023/08/19 14:18:32;;;;;;;3.20;2.63;;;;;;;;;;5034901;28;20029;-82
2023/08/19 14:20:57;;;;;;;4.30;2.88;;;;;;;;;;5034147;28;20464;-82